createdAt,value
2017-06-10T16:46:25.572Z,2.30
2017-06-10T16:48:53.816Z,2.40
2017-06-10T16:51:21.292Z,2.30
2017-06-10T16:53:48.806Z,2.60
2017-06-10T16:56:16.285Z,2.23
2017-06-10T16:58:44.037Z,3.60
2017-06-10T17:01:11.721Z,5.07
2017-06-10T17:03:39.201Z,2.70
2017-06-10T17:06:07.408Z,2.93
2017-06-10T17:08:35.094Z,3.20
2017-06-10T17:11:02.569Z,2.57
2017-06-10T17:13:30.040Z,3.20
2017-06-10T17:15:58.513Z,2.67
2017-06-10T17:18:27.236Z,3.40
2017-06-10T17:20:54.712Z,2.03
2017-06-10T17:23:23.188Z,3.60
2017-06-10T17:25:50.664Z,10.57
2017-06-10T17:28:18.139Z,25.90
2017-06-10T17:30:45.754Z,8.53
2017-06-10T17:33:13.229Z,2.50
2017-06-10T17:35:40.704Z,2.50
2017-06-10T17:38:08.223Z,9.90
2017-06-10T17:40:35.713Z,2.40
2017-06-10T17:43:03.189Z,2.87
2017-06-10T17:45:30.691Z,3.37
2017-06-10T17:47:58.172Z,5.50
2017-06-10T17:50:25.687Z,2.67
2017-06-10T17:52:53.292Z,6.30
2017-06-10T17:55:22.351Z,6.47
2017-06-10T17:57:49.824Z,2.53
2017-06-10T18:00:17.343Z,2.30
2017-06-10T18:02:44.820Z,2.27
2017-06-10T18:05:12.300Z,2.37
2017-06-10T18:07:39.921Z,3.17
2017-06-10T18:10:07.418Z,2.70
2017-06-10T18:12:35.668Z,3.17
2017-06-10T18:15:03.197Z,2.20
2017-06-10T18:17:30.696Z,2.23
2017-06-10T18:19:58.181Z,3.30
2017-06-10T18:22:25.797Z,4.20
2017-06-10T18:24:53.278Z,3.10
2017-06-10T18:27:20.745Z,2.63
2017-06-10T18:29:49.029Z,2.53
2017-06-10T18:32:16.502Z,2.93
2017-06-10T18:34:43.976Z,2.93
2017-06-10T18:37:11.540Z,2.90
2017-06-10T18:39:39.809Z,2.70
2017-06-10T18:42:08.046Z,5.93
2017-06-10T18:44:36.429Z,4.40
2017-06-10T18:47:03.972Z,4.13
2017-06-10T18:49:31.615Z,3.80
2017-06-10T18:51:59.898Z,3.83
2017-06-10T18:54:27.430Z,3.60
2017-06-10T18:56:54.973Z,3.50
2017-06-10T18:59:22.752Z,3.57
2017-06-10T19:01:50.231Z,3.60
2017-06-10T19:04:17.711Z,3.77
2017-06-10T19:06:45.334Z,3.33
2017-06-10T19:09:13.584Z,14.40
2017-06-10T19:11:41.829Z,22.03
2017-06-10T19:14:09.513Z,19.37
2017-06-10T19:16:37.001Z,11.47
2017-06-10T19:19:04.477Z,7.20
2017-06-10T19:21:33.061Z,6.80
2017-06-10T19:24:01.309Z,6.97
2017-06-10T19:26:29.564Z,7.83
2017-06-10T19:28:58.044Z,8.87
2017-06-10T19:31:26.297Z,9.80
2017-06-10T19:33:54.542Z,10.90
2017-06-10T19:36:22.173Z,8.83
2017-06-10T19:38:49.651Z,9.80
2017-06-10T19:41:17.132Z,16.33
2017-06-10T19:43:44.750Z,11.67
2017-06-10T19:46:13.009Z,13.30
2017-06-10T19:48:41.260Z,12.50
2017-06-10T19:51:09.557Z,10.87
2017-06-10T19:53:37.037Z,8.67
2017-06-10T19:56:04.516Z,7.07
2017-06-10T19:58:32.800Z,5.83
2017-06-10T20:01:00.378Z,6.50
2017-06-10T20:03:27.887Z,5.23
2017-06-10T20:05:55.405Z,4.53
2017-06-10T20:08:22.890Z,4.13
2017-06-10T20:10:50.364Z,4.07
2017-06-10T20:13:17.869Z,3.50
2017-06-10T20:15:45.349Z,3.47
2017-06-10T20:18:12.828Z,3.40
2017-06-10T20:20:40.452Z,3.43
2017-06-10T20:23:08.706Z,3.80
2017-06-10T20:25:36.953Z,3.30
2017-06-10T20:28:04.437Z,3.43
2017-06-10T20:30:31.916Z,3.60
2017-06-10T20:32:59.533Z,3.80
2017-06-10T20:35:27.012Z,3.80
2017-06-10T20:37:54.485Z,3.60
2017-06-10T20:40:22.009Z,3.23
2017-06-10T20:42:49.480Z,3.73
2017-06-10T20:45:17.960Z,3.53
2017-06-10T20:47:45.728Z,3.40
2017-06-10T20:50:13.202Z,4.40
2017-06-10T20:52:40.682Z,5.80
2017-06-10T20:55:08.308Z,4.40
2017-06-10T20:57:35.837Z,5.80
2017-06-10T21:00:03.327Z,5.20
2017-06-10T21:02:31.605Z,4.93
2017-06-10T21:04:59.085Z,5.80
2017-06-10T21:07:26.579Z,5.20
2017-06-10T21:09:54.985Z,4.90
2017-06-10T21:12:22.469Z,4.50
2017-06-10T21:14:49.941Z,4.87
2017-06-10T21:17:17.424Z,6.23
2017-06-10T21:19:44.905Z,6.00
2017-06-10T21:22:13.301Z,5.47
2017-06-10T21:24:40.791Z,5.67
2017-06-10T21:27:08.272Z,5.43
2017-06-10T21:29:36.017Z,5.53
2017-06-10T21:32:03.501Z,4.80
2017-06-10T21:34:30.984Z,4.27
2017-06-10T21:36:59.363Z,4.80
2017-06-10T21:39:26.849Z,7.70
2017-06-10T21:41:54.326Z,5.87
2017-06-10T21:44:21.828Z,8.10
2017-06-10T21:46:49.310Z,7.70
2017-06-10T21:49:17.563Z,6.07
2017-06-10T21:51:45.073Z,14.43
2017-06-10T21:54:12.561Z,13.17
2017-06-10T21:56:40.814Z,11.60
2017-06-10T21:59:09.524Z,10.10
2017-06-10T22:01:37.002Z,7.40
2017-06-10T22:04:04.484Z,9.03
2017-06-10T22:06:32.119Z,8.67
2017-06-10T22:09:00.369Z,5.40
2017-06-10T22:11:27.853Z,5.07
2017-06-10T22:13:55.383Z,4.70
2017-06-10T22:16:22.956Z,6.93
2017-06-10T22:18:50.432Z,4.73
2017-06-10T22:21:18.061Z,4.50
2017-06-10T22:23:45.545Z,4.23
2017-06-10T22:26:13.787Z,4.20
2017-06-10T22:28:42.183Z,5.63
2017-06-10T22:31:09.724Z,7.43
2017-06-10T22:33:37.205Z,8.80
2017-06-10T22:36:04.724Z,5.30
2017-06-10T22:38:32.255Z,5.43
2017-06-10T22:40:59.807Z,5.47
2017-06-10T22:43:27.341Z,5.07
2017-06-10T22:45:54.824Z,8.43
2017-06-10T22:48:22.347Z,6.20
2017-06-10T22:50:49.867Z,6.90
2017-06-10T22:53:17.409Z,5.20
2017-06-10T22:55:44.956Z,5.40
2017-06-10T22:58:12.517Z,10.27
2017-06-10T23:00:39.992Z,5.53
2017-06-10T23:03:07.477Z,5.43
2017-06-10T23:05:35.004Z,5.37
2017-06-10T23:08:03.276Z,5.17
2017-06-10T23:10:31.537Z,5.43
2017-06-10T23:12:59.086Z,4.80
2017-06-10T23:15:26.594Z,5.37
2017-06-10T23:17:54.174Z,4.90
2017-06-10T23:20:21.682Z,5.70
2017-06-10T23:22:49.260Z,5.60
2017-06-10T23:25:16.744Z,5.20
2017-06-10T23:27:44.556Z,5.70
2017-06-10T23:30:12.041Z,4.97
2017-06-10T23:32:39.520Z,6.40
2017-06-10T23:35:07.928Z,5.97
2017-06-10T23:37:35.412Z,6.23
2017-06-10T23:40:02.892Z,5.07
2017-06-10T23:42:31.249Z,5.27
2017-06-10T23:44:58.737Z,4.40
2017-06-10T23:47:26.212Z,4.97
2017-06-10T23:49:54.500Z,5.23
2017-06-10T23:52:21.977Z,5.30
2017-06-10T23:54:49.465Z,4.80
2017-06-10T23:57:16.996Z,4.63
2017-06-10T23:59:44.476Z,4.97
